Dudinka, Russia
Current Conditions -  °F | °C
As of 1:30 AM on Friday 31 Oct 2014 (Local Time) from USNN Reporting Station
Light Snow Light Snow  
Wind Chill: -10°   Ceiling: 1400
Heat Index: -5°   Visibility: 1.3mi
Dew Point: -5°   Wind: 9mph
Humidity: 100%   Direction: 190°S
Pressure: 29.65"   Gusts: NA
Location:  69.41°N, 86.18°E
Report Text: USNN 301830Z 19004MPS 2200 -SN OVC014 M05/M05 Q1004 TEMPO 1000SN RMK QFE748 21450532
Loading
Personal Weather Stations






























Interactive Weather Map
Tropical Storm Tracking
New forecast layout! Learn more

10-Day Weather Forecast

Advertisements
Track Severe Weather on mobile